Terminal Aerodrome Forecast
Issued by NWS

Home | Current Version | Previous Version | Text Only | Print | Product List | Glossary On
Versions: 1 2 3 4 5 6 7 8 9 10 11 12 13
000
FTUS46 KHNX 062320
TAFFAT
TAF
KFAT 062320Z 0700/0724 32010KT P6SM FEW250
     FM070900 VRB04KT P6SM FEW070 SCT120
     FM071500 14005KT P6SM SCT070 BKN120
     FM071800 VRB05KT P6SM VCSH BKN060 PROB30 0720/0724 3SM TSRAGS
      BKN040CB=

USA.gov is the U.S. government's official web portal to all federal, state and local government web resources and services.